Time;durP1;ratioP1;P1;durP2;ratioP2;P2;SDS_P1;SDS_P2;PMS_P1;PMS_P2;Temp;Humidity;BMP_temperature;BMP_pressure;BME280_temperature;BME280_humidity;BME280_pressure;Samples;Min_cycle;Max_cycle;Signal;HPM_P1;HPM_P2
2021/04/06 00:00:33;;;;;;;3.70;2.28;;;-0.80;14.00;;;;;;5021117;28;20065;-71
2021/04/06 00:03:03;;;;;;;7.18;2.20;;;-0.70;14.50;;;;;;5020058;28;20058;-72
2021/04/06 00:05:31;;;;;;;3.08;1.73;;;-0.70;12.50;;;;;;5017608;28;20058;-73
2021/04/06 00:08:00;;;;;;;6.03;1.80;;;-0.80;12.50;;;;;;5024475;28;20420;-73
2021/04/06 00:10:31;;;;;;;3.33;2.20;;;-0.80;12.80;;;;;;5017435;28;20133;-74
2021/04/06 00:12:59;;;;;;;4.85;1.67;;;-0.80;11.10;;;;;;5019949;28;20530;-73
2021/04/06 00:15:28;;;;;;;6.38;1.48;;;-0.90;11.80;;;;;;5012291;28;20403;-74
2021/04/06 00:17:58;;;;;;;5.15;1.63;;;-0.80;11.50;;;;;;5016016;28;20052;-73
2021/04/06 00:20:28;;;;;;;5.20;1.58;;;-0.80;11.10;;;;;;5019098;28;20056;-73
2021/04/06 00:22:56;;;;;;;5.20;1.70;;;-0.90;10.50;;;;;;5013832;28;20042;-73
2021/04/06 00:25:27;;;;;;;3.70;1.40;;;-0.80;10.40;;;;;;5011365;28;20092;-73
2021/04/06 00:27:55;;;;;;;6.30;1.40;;;-0.80;9.30;;;;;;5013514;28;20488;-74
2021/04/06 00:30:25;;;;;;;5.03;1.75;;;-0.90;7.80;;;;;;5011726;28;20072;-73
2021/04/06 00:33:04;;;;;;;5.18;1.95;;;-1.00;8.40;;;;;;5012586;28;20058;-74
2021/04/06 00:35:35;;;;;;;3.47;1.45;;;-1.00;8.90;;;;;;5006295;28;20061;-74
2021/04/06 00:38:04;;;;;;;3.55;1.70;;;-1.00;9.80;;;;;;5015344;28;20049;-74
2021/04/06 00:40:34;;;;;;;4.15;1.50;;;-0.90;9.40;;;;;;5010673;28;20049;-72
2021/04/06 00:43:04;;;;;;;3.58;1.83;;;-1.00;9.60;;;;;;5014840;28;20526;-73
2021/04/06 00:45:32;;;;;;;4.65;1.88;;;-0.90;9.60;;;;;;5009296;28;20411;-73
2021/04/06 00:48:00;;;;;;;5.90;2.15;;;-1.00;10.00;;;;;;5015810;28;20048;-74
2021/04/06 00:50:32;;;;;;;6.57;1.60;;;-1.00;10.90;;;;;;5015145;28;20049;-73
2021/04/06 00:52:59;;;;;;;5.30;1.95;;;-1.00;12.30;;;;;;5010332;28;20057;-74
2021/04/06 00:55:33;;;;;;;5.97;2.25;;;-1.00;12.30;;;;;;5011986;28;20050;-73
2021/04/06 00:58:00;;;;;;;3.22;1.85;;;-1.10;12.20;;;;;;5011062;28;20511;-73
2021/04/06 01:00:30;;;;;;;7.63;1.83;;;-1.10;12.40;;;;;;5014185;28;20045;-73
2021/04/06 01:02:59;;;;;;;6.30;2.33;;;-1.10;12.60;;;;;;5019876;28;20065;-73
2021/04/06 01:05:27;;;;;;;6.70;2.00;;;-1.00;13.90;;;;;;5016186;28;20057;-77
2021/04/06 01:07:56;;;;;;;5.25;2.55;;;-1.10;12.90;;;;;;5011336;28;20045;-72
2021/04/06 01:10:26;;;;;;;4.05;2.45;;;-1.10;13.10;;;;;;5012689;28;20053;-73
2021/04/06 01:12:55;;;;;;;4.90;2.00;;;-1.10;12.50;;;;;;5007666;28;20045;-74
2021/04/06 01:15:22;;;;;;;4.85;2.45;;;-1.20;13.30;;;;;;5006971;28;20049;-73
2021/04/06 01:17:49;;;;;;;6.07;2.50;;;-1.20;13.90;;;;;;5010730;28;20053;-72
2021/04/06 01:20:18;;;;;;;9.73;2.78;;;-1.30;14.70;;;;;;5014391;28;20045;-74
2021/04/06 01:22:48;;;;;;;6.75;2.47;;;-1.30;14.90;;;;;;5009591;28;20045;-73
2021/04/06 01:25:21;;;;;;;6.40;2.78;;;-1.30;14.70;;;;;;5011668;28;20046;-74
2021/04/06 01:27:49;;;;;;;8.25;2.72;;;-1.30;14.80;;;;;;5012152;28;20053;-74
2021/04/06 01:30:22;;;;;;;6.82;2.78;;;-1.20;14.30;;;;;;5017366;28;20054;-74
2021/04/06 01:32:50;;;;;;;7.45;3.53;;;-1.20;13.60;;;;;;5017864;28;20706;-73
2021/04/06 01:35:18;;;;;;;7.45;2.30;;;-1.20;12.20;;;;;;5011404;28;20049;-74
2021/04/06 01:37:45;;;;;;;5.03;2.10;;;-1.20;12.00;;;;;;5015536;28;20046;-74
2021/04/06 01:40:14;;;;;;;6.55;2.88;;;-1.10;10.80;;;;;;5011279;28;20050;-75
2021/04/06 01:42:42;;;;;;;5.30;2.25;;;-1.10;8.60;;;;;;5022105;28;20403;-74
2021/04/06 01:45:16;;;;;;;4.40;2.13;;;-1.10;9.40;;;;;;5010231;28;20404;-74
2021/04/06 01:47:43;;;;;;;2.45;1.88;;;-1.10;9.00;;;;;;5008930;28;20052;-74
2021/04/06 01:50:11;;;;;;;7.50;2.10;;;-1.10;8.00;;;;;;5014172;28;20056;-74
2021/04/06 01:52:40;;;;;;;9.90;2.85;;;-1.10;8.70;;;;;;5013711;28;20061;-75
2021/04/06 01:55:13;;;;;;;8.88;1.60;;;-1.10;7.70;;;;;;5017836;28;20056;-75
2021/04/06 01:57:45;;;;;;;6.43;2.05;;;-1.10;8.20;;;;;;5017209;28;20080;-74
2021/04/06 02:00:22;;;;;;;3.25;2.03;;;-1.10;6.90;;;;;;5010706;28;20061;-74
2021/04/06 02:02:50;;;;;;;4.22;1.70;;;-1.20;7.30;;;;;;5016593;28;20065;-74
2021/04/06 02:05:18;;;;;;;6.00;1.60;;;-1.10;7.40;;;;;;5009026;28;20160;-75
2021/04/06 02:07:47;;;;;;;5.15;2.00;;;-1.10;6.70;;;;;;5017982;28;20049;-75
2021/04/06 02:10:15;;;;;;;3.65;2.05;;;-1.10;7.30;;;;;;5016643;28;20049;-75
2021/04/06 02:12:45;;;;;;;5.45;2.33;;;-1.20;7.20;;;;;;5013543;28;20073;-75
2021/04/06 02:15:14;;;;;;;8.18;2.00;;;-1.20;7.20;;;;;;5009231;28;20046;-75
2021/04/06 02:17:49;;;;;;;4.97;2.20;;;-1.20;7.20;;;;;;5027634;28;20042;-74
2021/04/06 02:20:22;;;;;;;3.22;2.15;;;-1.20;8.00;;;;;;5022078;28;20046;-75
2021/04/06 02:23:02;;;;;;;6.72;2.10;;;-1.20;7.60;;;;;;5014635;28;20058;-74
2021/04/06 02:25:30;;;;;;;6.05;2.08;;;-1.20;7.20;;;;;;5017700;28;20519;-74
2021/04/06 02:27:58;;;;;;;5.28;2.20;;;-1.20;7.30;;;;;;5017336;28;20057;-74
2021/04/06 02:30:30;;;;;;;5.65;2.47;;;-1.20;7.60;;;;;;5010739;28;20056;-74
2021/04/06 02:32:58;;;;;;;4.72;2.45;;;-1.20;7.90;;;;;;5015707;28;20124;-76
2021/04/06 02:35:26;;;;;;;5.78;2.22;;;-1.20;7.90;;;;;;5011547;28;20492;-73
2021/04/06 02:37:54;;;;;;;10.27;2.78;;;-1.20;7.80;;;;;;5012082;28;20057;-74
2021/04/06 02:40:23;;;;;;;6.88;2.47;;;-1.30;7.90;;;;;;5021706;28;20124;-74
2021/04/06 02:42:55;;;;;;;4.35;2.28;;;-1.40;7.20;;;;;;5015218;28;20046;-74
2021/04/06 02:45:24;;;;;;;5.40;2.05;;;-1.40;7.30;;;;;;5006562;28;20042;-75
2021/04/06 02:47:52;;;;;;;3.78;1.98;;;-1.30;8.10;;;;;;5015095;28;20046;-75
2021/04/06 02:50:21;;;;;;;7.55;2.50;;;-1.30;7.70;;;;;;5017166;28;20416;-75
2021/04/06 02:52:48;;;;;;;4.85;2.10;;;-1.20;7.50;;;;;;5008811;28;20054;-74
2021/04/06 02:55:16;;;;;;;4.88;2.13;;;-1.20;6.80;;;;;;5009465;28;20058;-76
2021/04/06 02:57:46;;;;;;;5.60;1.85;;;-1.20;7.50;;;;;;5014317;28;20052;-74
2021/04/06 03:00:32;;;;;;;3.08;1.83;;;-1.10;6.20;;;;;;5021622;28;20060;-74
2021/04/06 03:03:01;;;;;;;4.47;2.08;;;-1.00;5.90;;;;;;5017932;28;20050;-73
2021/04/06 03:05:29;;;;;;;5.43;2.15;;;-1.00;5.60;;;;;;5009950;28;20050;-73
2021/04/06 03:07:56;;;;;;;5.75;2.08;;;-0.90;5.50;;;;;;5022890;28;20057;-74
2021/04/06 03:10:23;;;;;;;4.85;2.22;;;-0.90;5.50;;;;;;5017896;28;20050;-74
2021/04/06 03:12:50;;;;;;;6.85;2.20;;;-0.90;5.20;;;;;;5014152;28;20060;-74
2021/04/06 03:15:23;;;;;;;5.20;1.88;;;-0.90;5.60;;;;;;5011903;28;20046;-74
2021/04/06 03:17:52;;;;;;;8.80;2.65;;;-0.90;5.20;;;;;;5019205;28;20056;-75
2021/04/06 03:20:20;;;;;;;5.28;1.95;;;-1.00;5.20;;;;;;5013001;28;20526;-74
2021/04/06 03:22:48;;;;;;;5.43;2.30;;;-1.00;5.20;;;;;;5022010;28;20049;-74
2021/04/06 03:25:16;;;;;;;8.07;2.40;;;-1.00;5.20;;;;;;5013238;28;20053;-74
2021/04/06 03:27:44;;;;;;;5.90;2.03;;;-1.00;5.10;;;;;;5017327;28;20037;-73
2021/04/06 03:30:11;;;;;;;9.05;3.65;;;-0.90;4.20;;;;;;5015790;28;20507;-73
2021/04/06 03:32:39;;;;;;;7.38;2.45;;;-1.00;2.30;;;;;;5014541;28;20049;-73
2021/04/06 03:35:09;;;;;;;4.20;1.85;;;-0.90;3.00;;;;;;5016852;28;20049;-74
2021/04/06 03:37:36;;;;;;;5.30;2.33;;;-0.80;2.60;;;;;;5011486;28;20045;-73
2021/04/06 03:40:04;;;;;;;5.22;2.05;;;-0.80;3.20;;;;;;5013745;28;20046;-75
2021/04/06 03:42:31;;;;;;;6.43;1.90;;;-0.90;2.20;;;;;;5013599;28;20057;-73
2021/04/06 03:45:06;;;;;;;9.45;1.88;;;-0.90;2.10;;;;;;5021063;28;20057;-73
2021/04/06 03:47:55;;;;;;;5.28;2.08;;;-0.90;1.80;;;;;;5011189;28;20049;-75
2021/04/06 03:50:37;;;;;;;5.18;1.95;;;-1.00;1.80;;;;;;5014094;28;20049;-75
2021/04/06 03:53:06;;;;;;;8.48;2.55;;;-0.90;2.30;;;;;;5018733;28;20503;-75
2021/04/06 03:55:34;;;;;;;6.13;2.17;;;-1.00;1.80;;;;;;5008833;28;20053;-75
2021/04/06 03:58:10;;;;;;;7.82;2.33;;;-1.00;2.20;;;;;;5011388;28;20041;-75
2021/04/06 04:00:37;;;;;;;5.13;2.17;;;-1.00;1.90;;;;;;5013241;28;20073;-75
2021/04/06 04:03:04;;;;;;;4.28;1.77;;;-0.90;2.30;;;;;;5017226;28;20046;-74
2021/04/06 04:05:31;;;;;;;7.53;2.20;;;-0.90;2.10;;;;;;5012152;28;20054;-73
2021/04/06 04:07:58;;;;;;;5.60;1.75;;;-0.90;1.60;;;;;;5013169;28;20049;-73
2021/04/06 04:10:26;;;;;;;6.55;1.92;;;-0.80;1.60;;;;;;4993536;28;20050;-74
2021/04/06 04:12:53;;;;;;;6.10;2.00;;;-0.90;1.80;;;;;;5006565;28;20050;-73
2021/04/06 04:15:20;;;;;;;6.85;1.85;;;-0.90;1.60;;;;;;5012785;28;20045;-74
2021/04/06 04:17:48;;;;;;;7.50;2.10;;;-0.80;1.60;;;;;;5012720;28;20045;-74
2021/04/06 04:20:16;;;;;;;6.50;1.77;;;-0.80;2.10;;;;;;5012839;28;20050;-75
2021/04/06 04:22:43;;;;;;;6.28;1.95;;;-0.80;1.60;;;;;;5012747;28;20520;-74
2021/04/06 04:25:12;;;;;;;4.40;1.83;;;-0.70;2.00;;;;;;5009523;28;20076;-74
2021/04/06 04:27:40;;;;;;;4.85;2.42;;;-0.70;1.60;;;;;;5005689;28;20056;-75
2021/04/06 04:30:09;;;;;;;6.88;2.65;;;-0.70;1.80;;;;;;5012794;28;20046;-73
2021/04/06 04:32:39;;;;;;;7.57;2.50;;;-0.70;2.00;;;;;;5012095;28;20108;-73
2021/04/06 04:35:06;;;;;;;8.45;2.05;;;-0.60;2.20;;;;;;5002566;28;20045;-73
2021/04/06 04:37:34;;;;;;;8.93;2.38;;;-0.70;2.20;;;;;;5012168;28;20042;-74
2021/04/06 04:40:01;;;;;;;10.57;2.25;;;-0.60;2.40;;;;;;5012396;28;20636;-75
2021/04/06 04:42:33;;;;;;;7.93;2.30;;;-0.60;2.90;;;;;;5009520;28;20057;-74
2021/04/06 04:44:59;;;;;;;7.32;2.67;;;-0.70;2.10;;;;;;5012212;28;20050;-75
2021/04/06 04:47:26;;;;;;;6.45;1.65;;;-0.70;2.70;;;;;;5012019;28;20042;-75
2021/04/06 04:49:53;;;;;;;6.85;2.58;;;-0.60;2.50;;;;;;5012674;28;20049;-74
2021/04/06 04:52:20;;;;;;;6.00;2.30;;;-0.60;2.40;;;;;;5012470;28;20057;-74
2021/04/06 04:54:47;;;;;;;7.45;2.10;;;-0.50;2.60;;;;;;5012125;28;20056;-74
2021/04/06 04:57:14;;;;;;;7.90;1.85;;;-0.50;3.30;;;;;;5012037;28;20136;-75
2021/04/06 04:59:41;;;;;;;4.93;2.13;;;-0.50;2.90;;;;;;5005995;28;20455;-73
2021/04/06 05:02:08;;;;;;;13.82;2.70;;;-0.60;3.60;;;;;;5012074;28;20050;-73
2021/04/06 05:04:35;;;;;;;8.65;2.50;;;-0.50;4.30;;;;;;5011755;28;20534;-74
2021/04/06 05:07:02;;;;;;;7.47;2.58;;;-0.50;3.50;;;;;;5012159;28;20046;-74
2021/04/06 05:09:29;;;;;;;7.15;2.78;;;-0.50;3.40;;;;;;5012147;28;20084;-74
2021/04/06 05:11:56;;;;;;;8.57;2.70;;;-0.40;3.50;;;;;;5012028;28;20067;-74
2021/04/06 05:14:22;;;;;;;8.02;3.00;;;-0.50;3.30;;;;;;5011981;28;20081;-74
2021/04/06 05:16:50;;;;;;;7.75;3.20;;;-0.50;3.80;;;;;;5011848;28;20050;-74
2021/04/06 05:19:17;;;;;;;13.93;2.92;;;-0.40;3.50;;;;;;5012052;28;20046;-73
2021/04/06 05:21:44;;;;;;;7.45;2.30;;;-0.40;4.00;;;;;;5011587;28;20049;-74
2021/04/06 05:24:11;;;;;;;9.40;2.97;;;-0.30;4.30;;;;;;5010963;28;20054;-73
2021/04/06 05:26:38;;;;;;;7.38;2.47;;;-0.30;3.20;;;;;;5006110;28;20049;-74
2021/04/06 05:29:05;;;;;;;9.98;2.92;;;-0.30;3.70;;;;;;5012040;28;20049;-75
2021/04/06 05:31:32;;;;;;;5.43;2.40;;;-0.30;3.40;;;;;;5006938;28;20049;-75
2021/04/06 05:34:00;;;;;;;9.90;2.95;;;-0.30;3.90;;;;;;5011658;28;20518;-74
2021/04/06 05:36:26;;;;;;;5.75;2.67;;;-0.30;3.40;;;;;;5010603;28;20483;-74
2021/04/06 05:38:54;;;;;;;10.88;2.78;;;-0.10;4.00;;;;;;5009991;28;20045;-74
2021/04/06 05:41:23;;;;;;;6.28;2.47;;;-0.10;3.10;;;;;;5007296;28;20137;-74
2021/04/06 05:43:55;;;;;;;12.93;3.17;;;-0.10;2.60;;;;;;5013720;28;20072;-74
2021/04/06 05:46:23;;;;;;;10.73;2.70;;;0.00;3.90;;;;;;5013125;28;20061;-74
2021/04/06 05:48:51;;;;;;;8.80;2.95;;;0.00;2.60;;;;;;5015124;28;20452;-74
2021/04/06 05:51:20;;;;;;;8.45;3.08;;;-0.10;2.80;;;;;;5015188;28;20056;-74
2021/04/06 05:53:47;;;;;;;13.98;2.80;;;0.10;3.30;;;;;;5015361;28;20052;-74
2021/04/06 05:56:14;;;;;;;7.32;2.83;;;0.10;2.20;;;;;;5014875;28;20129;-75
2021/04/06 05:58:41;;;;;;;8.63;2.83;;;0.10;2.20;;;;;;5014751;28;20060;-73
2021/04/06 06:01:07;;;;;;;8.60;2.75;;;0.10;2.30;;;;;;5015090;28;20060;-74
2021/04/06 06:03:38;;;;;;;7.90;2.17;;;0.10;2.50;;;;;;5012320;28;20408;-73
2021/04/06 06:06:06;;;;;;;15.68;3.35;;;0.10;2.60;;;;;;5014727;28;20127;-74
2021/04/06 06:08:35;;;;;;;5.72;3.22;;;0.20;2.90;;;;;;5014977;28;20046;-73
2021/04/06 06:11:03;;;;;;;7.70;2.70;;;0.30;2.80;;;;;;5013530;28;20046;-74
2021/04/06 06:13:30;;;;;;;5.45;2.55;;;0.30;2.20;;;;;;5014851;28;20582;-75
2021/04/06 06:16:15;;;;;;;13.85;3.90;;;0.30;1.70;;;;;;5014800;28;20401;-74
2021/04/06 06:18:57;;;;;;;8.15;2.63;;;0.40;2.10;;;;;;4990869;28;20073;-74
2021/04/06 06:21:25;;;;;;;6.70;2.72;;;0.40;1.70;;;;;;5014938;28;20050;-74
2021/04/06 06:23:52;;;;;;;5.32;2.67;;;0.40;1.70;;;;;;5014619;28;20440;-73
2021/04/06 06:26:19;;;;;;;11.00;3.25;;;0.40;1.10;;;;;;5014767;28;20048;-74
2021/04/06 06:29:09;;;;;;;4.60;2.58;;;0.40;2.10;;;;;;5014988;28;20050;-73
2021/04/06 06:31:40;;;;;;;9.30;3.25;;;0.50;1.50;;;;;;5015257;28;20049;-74
2021/04/06 06:34:38;;;;;;;10.85;2.90;;;0.70;1.70;;;;;;5010019;28;20086;-74
2021/04/06 06:37:12;;;;;;;3.53;2.53;;;0.60;1.00;;;;;;4928522;29;20056;-75
2021/04/06 06:39:46;;;;;;;7.50;3.08;;;0.70;1.00;;;;;;4997332;28;20124;-75
2021/04/06 06:42:19;;;;;;;9.25;3.47;;;0.60;1.00;;;;;;5014773;28;20054;-74
2021/04/06 06:44:46;;;;;;;8.48;2.78;;;0.80;1.00;;;;;;5014079;28;20054;-75
2021/04/06 06:47:21;;;;;;;7.03;3.13;;;0.80;1.00;;;;;;4997399;28;20133;-74
2021/04/06 06:49:51;;;;;;;10.25;3.17;;;0.90;1.00;;;;;;4996581;28;20432;-75
2021/04/06 06:52:29;;;;;;;6.22;3.03;;;0.80;1.00;;;;;;4994856;28;20077;-73
2021/04/06 06:55:00;;;;;;;9.90;3.35;;;0.90;1.00;;;;;;5004917;28;20060;-74
2021/04/06 06:57:30;;;;;;;10.27;3.05;;;0.90;1.00;;;;;;4996554;28;20054;-74
2021/04/06 07:00:06;;;;;;;8.55;4.53;;;1.10;1.10;;;;;;5014303;28;20050;-74
2021/04/06 07:02:33;;;;;;;9.43;4.00;;;1.20;1.60;;;;;;5014483;28;20050;-74
2021/04/06 07:05:12;;;;;;;8.75;3.00;;;1.40;1.00;;;;;;5012208;28;20050;-74
2021/04/06 07:07:52;;;;;;;5.70;2.58;;;1.40;1.00;;;;;;5013745;28;20045;-75
2021/04/06 07:10:22;;;;;;;8.18;2.55;;;1.30;1.00;;;;;;5013796;28;20519;-74
2021/04/06 07:12:55;;;;;;;9.88;3.35;;;1.10;1.00;;;;;;5013801;28;20488;-74
2021/04/06 07:15:22;;;;;;;10.52;2.92;;;1.30;1.00;;;;;;5005653;28;20053;-74
2021/04/06 07:17:51;;;;;;;7.47;3.60;;;1.20;1.00;;;;;;5013712;28;20045;-74
2021/04/06 07:20:21;;;;;;;12.27;3.75;;;1.20;1.00;;;;;;5013859;28;20050;-74
2021/04/06 07:22:52;;;;;;;8.18;2.60;;;1.40;1.00;;;;;;5013787;28;20049;-74
2021/04/06 07:25:20;;;;;;;9.65;3.17;;;1.40;1.00;;;;;;5005165;28;20052;-74
2021/04/06 07:27:48;;;;;;;9.05;3.10;;;1.30;1.00;;;;;;5012657;28;20045;-74
2021/04/06 07:30:15;;;;;;;6.07;2.72;;;1.20;1.00;;;;;;5013076;28;20048;-75
2021/04/06 07:32:43;;;;;;;13.20;3.22;;;1.30;1.00;;;;;;5011526;28;20045;-73
2021/04/06 07:35:11;;;;;;;10.52;3.33;;;1.50;1.00;;;;;;5011997;28;20527;-73
2021/04/06 07:37:39;;;;;;;8.15;3.47;;;1.10;1.00;;;;;;5012864;28;20137;-74
2021/04/06 07:40:10;;;;;;;11.07;3.83;;;1.10;1.00;;;;;;5011982;28;20054;-74
2021/04/06 07:42:39;;;;;;;7.80;3.30;;;1.20;1.00;;;;;;5012884;28;20056;-74
2021/04/06 07:45:09;;;;;;;6.70;2.97;;;1.10;1.00;;;;;;5011103;28;20050;-74
2021/04/06 07:47:38;;;;;;;6.53;3.35;;;1.00;1.00;;;;;;5012516;28;20052;-75
2021/04/06 07:50:12;;;;;;;7.72;3.13;;;1.20;1.00;;;;;;5013039;28;20045;-73
2021/04/06 07:52:39;;;;;;;11.38;4.05;;;1.40;1.00;;;;;;5011791;28;20054;-76
2021/04/06 07:55:07;;;;;;;7.97;3.15;;;1.50;1.00;;;;;;5011430;28;20409;-74
2021/04/06 07:57:47;;;;;;;5.50;2.80;;;1.50;1.00;;;;;;5011993;28;20061;-72
2021/04/06 08:00:56;;;;;;;6.85;3.10;;;1.60;1.00;;;;;;5011399;28;20100;-73
2021/04/06 08:04:01;;;;;;;6.88;3.03;;;1.60;1.00;;;;;;5005577;28;20046;-72
2021/04/06 08:06:29;;;;;;;9.57;2.83;;;1.60;1.00;;;;;;5013394;28;20046;-73
2021/04/06 08:08:56;;;;;;;6.82;3.42;;;1.60;1.00;;;;;;5012709;28;20048;-74
2021/04/06 08:12:04;;;;;;;11.52;4.07;;;1.60;1.00;;;;;;5013111;28;20059;-73
2021/04/06 08:14:34;;;;;;;7.78;2.97;;;1.70;1.00;;;;;;5011430;28;20060;-72
2021/04/06 08:17:53;;;;;;;9.70;2.75;;;1.70;1.00;;;;;;5012128;28;20558;-73
2021/04/06 08:20:42;;;;;;;11.32;3.20;;;1.70;1.00;;;;;;4932776;29;20162;-72
2021/04/06 08:23:14;;;;;;;11.45;2.97;;;1.70;1.00;;;;;;4932700;29;20753;-72
2021/04/06 08:25:51;;;;;;;12.23;3.35;;;1.40;1.00;;;;;;4982983;28;20490;-72
2021/04/06 08:28:40;;;;;;;9.38;2.80;;;1.60;1.00;;;;;;4993104;28;20050;-73
2021/04/06 08:31:33;;;;;;;6.10;2.58;;;1.60;1.00;;;;;;5000204;28;20407;-72
2021/04/06 08:34:29;;;;;;;10.32;2.83;;;1.50;1.00;;;;;;4992257;28;20050;-73
2021/04/06 08:37:09;;;;;;;;;;;1.50;1.00;;;;;;4984596;28;20112;-72
2021/04/06 08:39:37;;;;;;;10.00;3.05;;;1.60;1.00;;;;;;5012365;28;19921;-73
2021/04/06 08:42:06;;;;;;;6.32;2.80;;;1.80;1.00;;;;;;5013043;28;20049;-72
2021/04/06 08:44:35;;;;;;;7.13;2.55;;;1.80;1.00;;;;;;5012882;28;20414;-72
2021/04/06 08:47:04;;;;;;;9.15;2.95;;;1.60;1.00;;;;;;5012566;28;20495;-72
2021/04/06 08:49:31;;;;;;;7.53;2.88;;;2.00;1.00;;;;;;5012782;28;20068;-71
2021/04/06 08:51:59;;;;;;;7.63;3.10;;;2.30;1.00;;;;;;5012821;28;20048;-72
2021/04/06 08:54:27;;;;;;;7.30;3.17;;;2.60;1.00;;;;;;5010098;28;20053;-72
2021/04/06 08:56:56;;;;;;;9.07;2.70;;;2.90;1.00;;;;;;5011437;28;20072;-71
2021/04/06 08:59:31;;;;;;;7.00;2.70;;;2.90;1.00;;;;;;5011528;28;20046;-70
2021/04/06 09:01:59;;;;;;;9.98;3.92;;;2.30;1.00;;;;;;5011152;28;20054;-70
2021/04/06 09:04:29;;;;;;;7.95;2.95;;;2.10;1.00;;;;;;5012252;28;20496;-70
2021/04/06 09:06:56;;;;;;;10.45;2.85;;;2.50;1.00;;;;;;5001161;28;20485;-73
2021/04/06 09:09:25;;;;;;;6.55;2.55;;;2.60;1.00;;;;;;5012928;28;20044;-75
2021/04/06 09:11:53;;;;;;;9.13;3.00;;;2.50;1.00;;;;;;5012709;28;20065;-73
2021/04/06 09:14:21;;;;;;;8.75;2.88;;;2.80;1.00;;;;;;5009340;28;20403;-72
2021/04/06 09:16:51;;;;;;;7.45;2.97;;;3.10;1.00;;;;;;5012043;28;20535;-74
2021/04/06 09:19:19;;;;;;;6.95;2.78;;;3.40;1.00;;;;;;5012003;28;20052;-74
2021/04/06 09:21:48;;;;;;;7.97;2.55;;;3.30;1.00;;;;;;5012393;28;20600;-73
2021/04/06 09:24:16;;;;;;;6.78;2.30;;;3.90;1.00;;;;;;5012318;28;20065;-72
2021/04/06 09:26:45;;;;;;;8.45;2.70;;;3.50;1.00;;;;;;5013123;28;20056;-73
2021/04/06 09:29:14;;;;;;;9.40;2.45;;;3.80;1.00;;;;;;5011108;28;20041;-74
2021/04/06 09:31:43;;;;;;;4.57;2.45;;;3.60;1.00;;;;;;5010317;28;20046;-74
2021/04/06 09:34:14;;;;;;;9.48;2.50;;;3.20;1.00;;;;;;5010291;28;20534;-74
2021/04/06 09:36:44;;;;;;;9.57;2.45;;;3.30;1.00;;;;;;5009793;28;20052;-73
2021/04/06 09:39:13;;;;;;;7.15;2.53;;;3.00;1.00;;;;;;5011169;28;20048;-75
2021/04/06 09:41:42;;;;;;;6.47;2.55;;;3.20;1.00;;;;;;5010453;28;20121;-74
2021/04/06 09:44:12;;;;;;;6.60;2.28;;;2.80;1.00;;;;;;5010480;28;20056;-74
2021/04/06 09:46:45;;;;;;;7.20;2.50;;;2.60;1.00;;;;;;5009540;28;20049;-74
2021/04/06 09:49:14;;;;;;;9.93;3.13;;;3.00;1.00;;;;;;5010894;28;20048;-74
2021/04/06 09:51:59;;;;;;;11.38;2.92;;;3.30;1.00;;;;;;5010974;28;20069;-74
2021/04/06 09:54:30;;;;;;;6.30;2.72;;;3.40;1.00;;;;;;5009375;28;20069;-75
2021/04/06 09:56:59;;;;;;;6.38;2.28;;;3.50;1.00;;;;;;5008788;28;20152;-74
2021/04/06 09:59:27;;;;;;;7.97;3.05;;;3.30;1.00;;;;;;5011006;28;20057;-75
2021/04/06 10:01:56;;;;;;;6.82;2.08;;;3.50;1.00;;;;;;5010530;28;20053;-75
2021/04/06 10:04:34;;;;;;;7.15;2.20;;;3.10;1.00;;;;;;5008097;28;20042;-73
2021/04/06 10:07:10;;;;;;;3.03;1.90;;;2.50;1.00;;;;;;5009648;28;20054;-73
2021/04/06 10:09:40;;;;;;;4.22;2.25;;;2.50;1.00;;;;;;5010167;28;20079;-73
2021/04/06 10:12:08;;;;;;;5.47;2.15;;;2.80;1.00;;;;;;5009276;28;20045;-74
2021/04/06 10:14:36;;;;;;;8.40;2.88;;;3.00;1.00;;;;;;5009357;28;20049;-74
2021/04/06 10:17:06;;;;;;;6.10;2.53;;;3.80;1.00;;;;;;5010181;28;20050;-74
2021/04/06 10:19:34;;;;;;;5.88;2.60;;;4.60;1.00;;;;;;5009765;28;20050;-75
2021/04/06 10:22:07;;;;;;;6.20;2.08;;;4.60;1.00;;;;;;5010744;28;20050;-74
2021/04/06 10:24:37;;;;;;;9.73;2.28;;;4.80;1.00;;;;;;5008431;28;20054;-74
2021/04/06 10:27:21;;;;;;;7.93;2.72;;;4.60;1.00;;;;;;5008738;28;20420;-75
2021/04/06 10:29:53;;;;;;;10.00;2.65;;;4.60;1.00;;;;;;5012315;28;20046;-74
2021/04/06 10:32:27;;;;;;;5.63;2.60;;;5.00;1.00;;;;;;5014042;28;20432;-74
2021/04/06 10:35:05;;;;;;;6.22;2.88;;;4.70;1.00;;;;;;5012032;28;20404;-74
2021/04/06 10:37:40;;;;;;;6.95;2.20;;;4.90;1.00;;;;;;5012962;28;20076;-74
2021/04/06 10:40:41;;;;;;;7.35;2.38;;;4.40;1.00;;;;;;5013782;28;20042;-74
2021/04/06 10:43:11;;;;;;;4.63;2.65;;;4.50;1.00;;;;;;5013480;28;20053;-76
2021/04/06 10:45:40;;;;;;;6.70;2.05;;;4.30;1.00;;;;;;5010753;28;20053;-68
2021/04/06 10:48:14;;;;;;;6.97;2.33;;;4.60;1.00;;;;;;5012415;28;20522;-69
2021/04/06 10:50:44;;;;;;;6.90;2.60;;;4.70;1.00;;;;;;5012608;28;20062;-69
2021/04/06 10:53:16;;;;;;;5.80;1.90;;;5.00;1.00;;;;;;5012934;28;20045;-69
2021/04/06 10:55:43;;;;;;;10.40;2.10;;;5.00;1.00;;;;;;5011098;28;20046;-69
2021/04/06 10:58:11;;;;;;;6.90;2.30;;;4.50;1.00;;;;;;5012958;28;20053;-68
2021/04/06 11:00:39;;;;;;;4.80;2.28;;;5.20;1.00;;;;;;5011852;28;20054;-70
2021/04/06 11:03:11;;;;;;;4.03;2.30;;;5.00;1.00;;;;;;5013379;28;20081;-68
2021/04/06 11:05:39;;;;;;;5.13;2.10;;;4.90;1.00;;;;;;5008712;28;20046;-68
2021/04/06 11:08:17;;;;;;;7.72;2.10;;;4.60;1.00;;;;;;5009761;28;20050;-68
2021/04/06 11:10:45;;;;;;;3.45;1.98;;;4.70;1.00;;;;;;5012830;28;20501;-69
2021/04/06 11:13:13;;;;;;;2.72;1.75;;;5.00;1.00;;;;;;5012373;28;20049;-68
2021/04/06 11:15:41;;;;;;;7.65;2.22;;;4.40;1.00;;;;;;5010891;28;20053;-66
2021/04/06 11:18:09;;;;;;;4.20;1.90;;;4.90;1.00;;;;;;5011785;28;20041;-69
2021/04/06 11:20:36;;;;;;;5.43;1.90;;;4.70;1.00;;;;;;5012778;28;20405;-70
2021/04/06 11:23:04;;;;;;;7.93;2.22;;;5.20;1.00;;;;;;5011498;28;20045;-71
2021/04/06 11:25:31;;;;;;;4.70;1.92;;;5.00;1.00;;;;;;5011054;28;20424;-70
2021/04/06 11:27:59;;;;;;;7.75;2.75;;;5.10;1.00;;;;;;5012385;28;20065;-70
2021/04/06 11:30:31;;;;;;;5.57;2.15;;;4.70;1.00;;;;;;5011165;28;20042;-69
2021/04/06 11:33:00;;;;;;;6.03;2.30;;;5.00;1.00;;;;;;5011790;28;20567;-70
2021/04/06 11:35:28;;;;;;;4.82;1.95;;;5.40;1.00;;;;;;5011012;28;20045;-71
2021/04/06 11:37:55;;;;;;;6.25;2.30;;;5.80;1.00;;;;;;5010545;28;20056;-73
2021/04/06 11:40:22;;;;;;;7.03;2.80;;;5.30;1.00;;;;;;5007400;28;20049;-70
2021/04/06 11:42:50;;;;;;;3.17;1.48;;;5.60;1.00;;;;;;5011142;28;20056;-70
2021/04/06 11:45:17;;;;;;;2.58;1.95;;;5.20;1.00;;;;;;5011142;28;20054;-77
2021/04/06 11:47:44;;;;;;;5.63;2.28;;;5.10;1.00;;;;;;5012853;28;20056;-75
2021/04/06 11:50:12;;;;;;;3.83;1.98;;;5.10;1.00;;;;;;5012764;28;20049;-75
2021/04/06 11:52:39;;;;;;;3.10;1.80;;;4.80;1.00;;;;;;5011777;28;20515;-75
2021/04/06 11:55:07;;;;;;;6.57;2.00;;;5.60;1.00;;;;;;5011362;28;20132;-73
2021/04/06 11:57:34;;;;;;;5.10;1.75;;;6.50;1.00;;;;;;5011968;28;20052;-74
2021/04/06 12:00:01;;;;;;;8.50;1.92;;;6.80;1.00;;;;;;5012736;28;20132;-74
2021/04/06 12:02:28;;;;;;;4.88;1.90;;;6.70;1.00;;;;;;5009365;28;20068;-74
2021/04/06 12:04:55;;;;;;;3.63;1.65;;;6.30;1.00;;;;;;5010624;28;20058;-73
2021/04/06 12:07:22;;;;;;;5.40;2.20;;;5.30;1.00;;;;;;5008192;28;20056;-73
2021/04/06 12:09:49;;;;;;;2.80;1.48;;;5.40;1.00;;;;;;5012539;28;20389;-73
2021/04/06 12:12:16;;;;;;;8.00;2.95;;;5.10;1.00;;;;;;5004569;28;20056;-72
2021/04/06 12:14:43;;;;;;;6.95;2.53;;;5.10;1.00;;;;;;5009445;28;20052;-75
2021/04/06 12:17:10;;;;;;;4.93;1.60;;;5.40;1.00;;;;;;5011025;28;20050;-73
2021/04/06 12:19:37;;;;;;;5.40;2.17;;;5.30;1.00;;;;;;5011467;28;20050;-74
2021/04/06 12:22:04;;;;;;;6.55;1.80;;;5.50;1.00;;;;;;5010830;28;20049;-72
2021/04/06 12:24:31;;;;;;;4.53;2.25;;;5.90;1.00;;;;;;5010226;28;20077;-74
2021/04/06 12:26:58;;;;;;;4.68;1.75;;;5.50;1.00;;;;;;5010213;28;20046;-72
2021/04/06 12:29:25;;;;;;;8.93;1.90;;;5.20;1.00;;;;;;5009609;28;20499;-75
2021/04/06 12:31:52;;;;;;;5.30;1.95;;;5.60;1.00;;;;;;5006003;28;20059;-75
2021/04/06 12:34:19;;;;;;;6.78;1.80;;;5.00;1.00;;;;;;5008929;28;20057;-74
2021/04/06 12:36:46;;;;;;;3.78;2.05;;;5.60;1.00;;;;;;5005513;28;20080;-72
2021/04/06 12:39:33;;;;;;;5.07;1.95;;;5.80;1.00;;;;;;5010585;28;20428;-73
2021/04/06 12:42:01;;;;;;;6.00;2.05;;;5.90;1.00;;;;;;5017266;28;21684;-73
2021/04/06 12:44:27;;;;;;;5.10;1.80;;;5.10;1.00;;;;;;5010828;28;20070;-74
2021/04/06 12:46:58;;;;;;;4.70;1.90;;;5.40;1.00;;;;;;5008704;28;21485;-72
2021/04/06 12:49:25;;;;;;;6.65;2.13;;;5.50;1.00;;;;;;5013965;28;20049;-74
2021/04/06 12:51:52;;;;;;;3.55;1.60;;;6.20;1.00;;;;;;5008905;28;20050;-72
2021/04/06 12:54:19;;;;;;;5.03;2.20;;;6.40;1.00;;;;;;5006900;28;20053;-74
2021/04/06 12:56:47;;;;;;;6.63;2.60;;;5.60;1.00;;;;;;5011726;28;20058;-75
2021/04/06 12:59:14;;;;;;;5.53;2.72;;;5.90;1.00;;;;;;5008989;28;20050;-74
2021/04/06 13:01:40;;;;;;;7.28;2.45;;;6.00;1.00;;;;;;5009213;28;20054;-74
2021/04/06 13:04:10;;;;;;;8.00;2.20;;;5.40;1.00;;;;;;5012678;28;20541;-75
2021/04/06 13:06:37;;;;;;;5.85;2.25;;;5.90;1.00;;;;;;5010013;28;20085;-73
2021/04/06 13:09:05;;;;;;;4.07;1.73;;;5.90;1.00;;;;;;5009747;28;20046;-73
2021/04/06 13:11:32;;;;;;;4.75;1.95;;;5.90;1.00;;;;;;5008765;28;20061;-74
2021/04/06 13:14:01;;;;;;;7.82;2.65;;;6.40;1.00;;;;;;5009889;28;20042;-74
2021/04/06 13:16:29;;;;;;;5.63;1.90;;;6.30;1.00;;;;;;5007592;28;20061;-76